sensor_id;sensor_type;location;lat;lon;timestamp;P1;durP1;ratioP1;P2;durP2;ratioP2
64641;SDS011;59936;51.490;5.436;2023-06-05T00:00:02;7.60;;;4.00;;
64641;SDS011;59936;51.490;5.436;2023-06-05T00:04:51;7.50;;;3.60;;
64641;SDS011;59936;51.490;5.436;2023-06-05T00:07:21;4.70;;;3.50;;
64641;SDS011;59936;51.490;5.436;2023-06-05T00:09:49;5.30;;;3.80;;
64641;SDS011;59936;51.490;5.436;2023-06-05T00:12:18;7.70;;;3.70;;
64641;SDS011;59936;51.490;5.436;2023-06-05T00:14:46;5.40;;;3.50;;
64641;SDS011;59936;51.490;5.436;2023-06-05T00:17:15;7.10;;;3.90;;
64641;SDS011;59936;51.490;5.436;2023-06-05T00:19:43;10.50;;;4.20;;
64641;SDS011;59936;51.490;5.436;2023-06-05T00:22:12;4.30;;;3.70;;
64641;SDS011;59936;51.490;5.436;2023-06-05T00:24:41;8.10;;;3.30;;
64641;SDS011;59936;51.490;5.436;2023-06-05T00:27:09;6.40;;;4.10;;
64641;SDS011;59936;51.490;5.436;2023-06-05T00:29:38;5.30;;;3.80;;
64641;SDS011;59936;51.490;5.436;2023-06-05T00:32:06;5.40;;;3.60;;
64641;SDS011;59936;51.490;5.436;2023-06-05T00:34:35;3.90;;;3.30;;
64641;SDS011;59936;51.490;5.436;2023-06-05T00:37:04;4.30;;;3.90;;
64641;SDS011;59936;51.490;5.436;2023-06-05T00:39:32;4.60;;;3.90;;
64641;SDS011;59936;51.490;5.436;2023-06-05T00:42:01;4.20;;;3.80;;
64641;SDS011;59936;51.490;5.436;2023-06-05T00:44:30;10.60;;;4.70;;
64641;SDS011;59936;51.490;5.436;2023-06-05T00:46:58;5.20;;;4.00;;
64641;SDS011;59936;51.490;5.436;2023-06-05T00:49:27;8.40;;;4.60;;
64641;SDS011;59936;51.490;5.436;2023-06-05T00:51:56;12.10;;;4.30;;
64641;SDS011;59936;51.490;5.436;2023-06-05T00:54:26;5.20;;;4.30;;
64641;SDS011;59936;51.490;5.436;2023-06-05T00:56:54;6.40;;;4.10;;
64641;SDS011;59936;51.490;5.436;2023-06-05T00:59:23;4.70;;;4.10;;
64641;SDS011;59936;51.490;5.436;2023-06-05T01:01:52;7.40;;;4.40;;
64641;SDS011;59936;51.490;5.436;2023-06-05T01:04:20;6.30;;;4.30;;
64641;SDS011;59936;51.490;5.436;2023-06-05T01:06:49;8.00;;;3.90;;
64641;SDS011;59936;51.490;5.436;2023-06-05T01:09:18;7.10;;;4.20;;
64641;SDS011;59936;51.490;5.436;2023-06-05T01:14:56;8.80;;;3.70;;
64641;SDS011;59936;51.490;5.436;2023-06-05T01:17:29;6.20;;;4.20;;
64641;SDS011;59936;51.490;5.436;2023-06-05T01:19:59;5.90;;;4.40;;
64641;SDS011;59936;51.490;5.436;2023-06-05T01:22:28;5.10;;;3.90;;
64641;SDS011;59936;51.490;5.436;2023-06-05T01:24:56;4.60;;;4.10;;
64641;SDS011;59936;51.490;5.436;2023-06-05T01:28:08;5.70;;;4.30;;
64641;SDS011;59936;51.490;5.436;2023-06-05T01:33:26;6.30;;;4.30;;
64641;SDS011;59936;51.490;5.436;2023-06-05T01:36:02;6.00;;;4.50;;
64641;SDS011;59936;51.490;5.436;2023-06-05T01:38:33;6.20;;;4.40;;
64641;SDS011;59936;51.490;5.436;2023-06-05T01:41:02;6.30;;;4.30;;
64641;SDS011;59936;51.490;5.436;2023-06-05T01:43:32;11.00;;;5.20;;
64641;SDS011;59936;51.490;5.436;2023-06-05T01:46:03;7.40;;;4.60;;
64641;SDS011;59936;51.490;5.436;2023-06-05T01:48:33;6.40;;;5.00;;
64641;SDS011;59936;51.490;5.436;2023-06-05T01:51:03;9.30;;;5.40;;
64641;SDS011;59936;51.490;5.436;2023-06-05T01:53:32;8.80;;;4.80;;
64641;SDS011;59936;51.490;5.436;2023-06-05T01:56:01;5.90;;;4.30;;
64641;SDS011;59936;51.490;5.436;2023-06-05T01:58:29;8.90;;;4.50;;
64641;SDS011;59936;51.490;5.436;2023-06-05T02:00:58;6.50;;;4.80;;
64641;SDS011;59936;51.490;5.436;2023-06-05T02:03:26;11.50;;;4.60;;
64641;SDS011;59936;51.490;5.436;2023-06-05T02:05:55;6.70;;;4.70;;
64641;SDS011;59936;51.490;5.436;2023-06-05T02:08:24;6.80;;;5.10;;
64641;SDS011;59936;51.490;5.436;2023-06-05T02:10:52;7.30;;;4.90;;
64641;SDS011;59936;51.490;5.436;2023-06-05T02:13:21;7.60;;;4.90;;
64641;SDS011;59936;51.490;5.436;2023-06-05T02:15:49;8.60;;;5.20;;
64641;SDS011;59936;51.490;5.436;2023-06-05T02:18:18;11.80;;;5.80;;
64641;SDS011;59936;51.490;5.436;2023-06-05T02:20:52;6.40;;;4.80;;
64641;SDS011;59936;51.490;5.436;2023-06-05T02:23:22;9.70;;;5.90;;
64641;SDS011;59936;51.490;5.436;2023-06-05T02:25:50;8.10;;;5.70;;
64641;SDS011;59936;51.490;5.436;2023-06-05T02:28:19;6.80;;;5.10;;
64641;SDS011;59936;51.490;5.436;2023-06-05T02:30:48;6.90;;;5.50;;
64641;SDS011;59936;51.490;5.436;2023-06-05T02:33:22;9.64;;;6.02;;
64641;SDS011;59936;51.490;5.436;2023-06-05T02:35:51;8.25;;;5.90;;
64641;SDS011;59936;51.490;5.436;2023-06-05T02:38:19;7.30;;;5.90;;
64641;SDS011;59936;51.490;5.436;2023-06-05T02:40:48;9.00;;;5.80;;
64641;SDS011;59936;51.490;5.436;2023-06-05T02:43:16;10.00;;;5.70;;
64641;SDS011;59936;51.490;5.436;2023-06-05T02:45:45;7.00;;;5.70;;
64641;SDS011;59936;51.490;5.436;2023-06-05T02:48:13;10.30;;;6.20;;
64641;SDS011;59936;51.490;5.436;2023-06-05T02:50:42;10.20;;;6.10;;
64641;SDS011;59936;51.490;5.436;2023-06-05T02:53:11;12.00;;;6.20;;
64641;SDS011;59936;51.490;5.436;2023-06-05T02:55:39;12.70;;;6.10;;
64641;SDS011;59936;51.490;5.436;2023-06-05T02:58:08;9.40;;;7.60;;
64641;SDS011;59936;51.490;5.436;2023-06-05T03:00:36;15.20;;;7.30;;
64641;SDS011;59936;51.490;5.436;2023-06-05T03:03:10;9.80;;;6.70;;
64641;SDS011;59936;51.490;5.436;2023-06-05T03:05:39;8.60;;;6.60;;
64641;SDS011;59936;51.490;5.436;2023-06-05T03:08:13;7.65;;;6.85;;
64641;SDS011;59936;51.490;5.436;2023-06-05T03:10:42;10.50;;;7.70;;
64641;SDS011;59936;51.490;5.436;2023-06-05T03:13:11;9.20;;;7.50;;
64641;SDS011;59936;51.490;5.436;2023-06-05T03:15:39;10.00;;;7.40;;
64641;SDS011;59936;51.490;5.436;2023-06-05T03:18:08;10.10;;;6.90;;
64641;SDS011;59936;51.490;5.436;2023-06-05T03:20:36;13.10;;;7.30;;
64641;SDS011;59936;51.490;5.436;2023-06-05T03:23:05;11.70;;;7.30;;
64641;SDS011;59936;51.490;5.436;2023-06-05T03:25:33;11.10;;;7.40;;
64641;SDS011;59936;51.490;5.436;2023-06-05T03:28:02;12.80;;;7.50;;
64641;SDS011;59936;51.490;5.436;2023-06-05T03:30:31;12.20;;;7.80;;
64641;SDS011;59936;51.490;5.436;2023-06-05T03:32:59;15.30;;;7.60;;
64641;SDS011;59936;51.490;5.436;2023-06-05T03:35:28;11.30;;;6.80;;
64641;SDS011;59936;51.490;5.436;2023-06-05T03:37:56;10.90;;;7.70;;
64641;SDS011;59936;51.490;5.436;2023-06-05T03:40:25;7.80;;;7.00;;
64641;SDS011;59936;51.490;5.436;2023-06-05T03:42:53;11.50;;;8.20;;
64641;SDS011;59936;51.490;5.436;2023-06-05T03:45:22;15.40;;;7.90;;
64641;SDS011;59936;51.490;5.436;2023-06-05T03:47:51;12.70;;;7.50;;
64641;SDS011;59936;51.490;5.436;2023-06-05T03:50:20;11.70;;;7.70;;
64641;SDS011;59936;51.490;5.436;2023-06-05T03:52:49;9.10;;;7.70;;
64641;SDS011;59936;51.490;5.436;2023-06-05T03:55:20;12.50;;;8.10;;
64641;SDS011;59936;51.490;5.436;2023-06-05T03:57:49;12.30;;;7.60;;
64641;SDS011;59936;51.490;5.436;2023-06-05T04:00:18;8.60;;;7.50;;
64641;SDS011;59936;51.490;5.436;2023-06-05T04:02:46;9.80;;;7.90;;
64641;SDS011;59936;51.490;5.436;2023-06-05T04:05:15;13.10;;;8.70;;
64641;SDS011;59936;51.490;5.436;2023-06-05T04:07:43;9.10;;;7.70;;
64641;SDS011;59936;51.490;5.436;2023-06-05T04:10:12;9.80;;;7.90;;
64641;SDS011;59936;51.490;5.436;2023-06-05T04:12:40;10.90;;;8.80;;
64641;SDS011;59936;51.490;5.436;2023-06-05T04:15:09;13.70;;;8.90;;
64641;SDS011;59936;51.490;5.436;2023-06-05T04:17:38;10.10;;;7.90;;
64641;SDS011;59936;51.490;5.436;2023-06-05T04:20:06;13.60;;;7.60;;
64641;SDS011;59936;51.490;5.436;2023-06-05T04:22:36;10.15;;;8.05;;
64641;SDS011;59936;51.490;5.436;2023-06-05T04:25:04;11.10;;;7.90;;
64641;SDS011;59936;51.490;5.436;2023-06-05T04:27:39;15.80;;;8.50;;
64641;SDS011;59936;51.490;5.436;2023-06-05T04:30:11;15.95;;;9.10;;
64641;SDS011;59936;51.490;5.436;2023-06-05T04:32:41;17.00;;;8.40;;
64641;SDS011;59936;51.490;5.436;2023-06-05T04:35:10;17.50;;;8.50;;
64641;SDS011;59936;51.490;5.436;2023-06-05T04:37:38;14.60;;;8.30;;
64641;SDS011;59936;51.490;5.436;2023-06-05T04:40:07;20.70;;;8.80;;
64641;SDS011;59936;51.490;5.436;2023-06-05T04:42:36;17.40;;;8.60;;
64641;SDS011;59936;51.490;5.436;2023-06-05T04:45:05;16.80;;;8.60;;
64641;SDS011;59936;51.490;5.436;2023-06-05T04:47:35;12.50;;;8.40;;
64641;SDS011;59936;51.490;5.436;2023-06-05T04:50:04;13.30;;;8.70;;
64641;SDS011;59936;51.490;5.436;2023-06-05T04:52:34;14.20;;;7.90;;
64641;SDS011;59936;51.490;5.436;2023-06-05T04:55:03;16.30;;;9.60;;
64641;SDS011;59936;51.490;5.436;2023-06-05T04:57:32;13.50;;;8.80;;
64641;SDS011;59936;51.490;5.436;2023-06-05T05:00:00;17.00;;;9.90;;
64641;SDS011;59936;51.490;5.436;2023-06-05T05:02:29;14.80;;;9.20;;
64641;SDS011;59936;51.490;5.436;2023-06-05T05:04:57;12.35;;;9.35;;
64641;SDS011;59936;51.490;5.436;2023-06-05T05:07:26;13.90;;;9.10;;
64641;SDS011;59936;51.490;5.436;2023-06-05T05:09:54;13.40;;;9.40;;
64641;SDS011;59936;51.490;5.436;2023-06-05T05:12:27;12.40;;;8.55;;
64641;SDS011;59936;51.490;5.436;2023-06-05T05:14:56;14.50;;;10.00;;
64641;SDS011;59936;51.490;5.436;2023-06-05T05:17:24;16.80;;;8.70;;
64641;SDS011;59936;51.490;5.436;2023-06-05T05:19:58;14.60;;;9.60;;
64641;SDS011;59936;51.490;5.436;2023-06-05T05:22:27;13.75;;;9.80;;
64641;SDS011;59936;51.490;5.436;2023-06-05T05:24:55;14.90;;;9.30;;
64641;SDS011;59936;51.490;5.436;2023-06-05T05:27:24;15.60;;;9.30;;
64641;SDS011;59936;51.490;5.436;2023-06-05T05:29:53;15.30;;;9.30;;
64641;SDS011;59936;51.490;5.436;2023-06-05T05:32:21;12.90;;;9.00;;
64641;SDS011;59936;51.490;5.436;2023-06-05T05:34:50;11.30;;;8.70;;
64641;SDS011;59936;51.490;5.436;2023-06-05T05:37:18;11.80;;;8.90;;
64641;SDS011;59936;51.490;5.436;2023-06-05T05:39:47;14.90;;;9.10;;
64641;SDS011;59936;51.490;5.436;2023-06-05T05:42:16;14.20;;;9.70;;
64641;SDS011;59936;51.490;5.436;2023-06-05T05:44:44;11.50;;;8.70;;
64641;SDS011;59936;51.490;5.436;2023-06-05T05:47:13;11.40;;;8.10;;
64641;SDS011;59936;51.490;5.436;2023-06-05T05:49:41;12.30;;;8.30;;
64641;SDS011;59936;51.490;5.436;2023-06-05T05:52:10;9.10;;;8.20;;
64641;SDS011;59936;51.490;5.436;2023-06-05T05:54:43;12.50;;;8.50;;
64641;SDS011;59936;51.490;5.436;2023-06-05T05:57:11;15.90;;;9.90;;
64641;SDS011;59936;51.490;5.436;2023-06-05T05:59:40;12.10;;;8.70;;
64641;SDS011;59936;51.490;5.436;2023-06-05T06:02:09;13.10;;;8.80;;
64641;SDS011;59936;51.490;5.436;2023-06-05T06:04:38;11.10;;;8.60;;
64641;SDS011;59936;51.490;5.436;2023-06-05T06:07:13;19.65;;;8.02;;
64641;SDS011;59936;51.490;5.436;2023-06-05T06:09:47;18.70;;;8.90;;
64641;SDS011;59936;51.490;5.436;2023-06-05T06:12:16;11.80;;;9.30;;
64641;SDS011;59936;51.490;5.436;2023-06-05T06:14:44;13.25;;;8.40;;
64641;SDS011;59936;51.490;5.436;2023-06-05T06:17:13;11.80;;;9.30;;
64641;SDS011;59936;51.490;5.436;2023-06-05T06:19:41;12.80;;;8.10;;
64641;SDS011;59936;51.490;5.436;2023-06-05T06:22:10;13.00;;;9.20;;
64641;SDS011;59936;51.490;5.436;2023-06-05T06:24:39;13.80;;;10.00;;
64641;SDS011;59936;51.490;5.436;2023-06-05T06:27:09;14.30;;;9.60;;
64641;SDS011;59936;51.490;5.436;2023-06-05T06:29:46;15.40;;;8.80;;
64641;SDS011;59936;51.490;5.436;2023-06-05T06:32:19;13.10;;;9.70;;
64641;SDS011;59936;51.490;5.436;2023-06-05T06:34:49;12.30;;;9.00;;
64641;SDS011;59936;51.490;5.436;2023-06-05T06:37:17;17.00;;;9.00;;
64641;SDS011;59936;51.490;5.436;2023-06-05T06:39:47;10.20;;;7.90;;
64641;SDS011;59936;51.490;5.436;2023-06-05T06:42:16;15.90;;;9.20;;
64641;SDS011;59936;51.490;5.436;2023-06-05T06:44:45;8.70;;;7.80;;
64641;SDS011;59936;51.490;5.436;2023-06-05T06:47:13;10.60;;;8.00;;
64641;SDS011;59936;51.490;5.436;2023-06-05T06:49:42;11.00;;;8.00;;
64641;SDS011;59936;51.490;5.436;2023-06-05T06:52:10;11.00;;;7.80;;
64641;SDS011;59936;51.490;5.436;2023-06-05T06:54:39;8.60;;;7.20;;
64641;SDS011;59936;51.490;5.436;2023-06-05T06:57:07;8.50;;;7.60;;
64641;SDS011;59936;51.490;5.436;2023-06-05T06:59:36;11.00;;;9.00;;
64641;SDS011;59936;51.490;5.436;2023-06-05T07:02:08;11.50;;;7.60;;
64641;SDS011;59936;51.490;5.436;2023-06-05T07:04:40;12.40;;;8.50;;
64641;SDS011;59936;51.490;5.436;2023-06-05T07:07:12;12.30;;;8.60;;
64641;SDS011;59936;51.490;5.436;2023-06-05T07:09:44;11.00;;;8.40;;
64641;SDS011;59936;51.490;5.436;2023-06-05T07:12:14;9.40;;;7.45;;
64641;SDS011;59936;51.490;5.436;2023-06-05T07:14:43;10.30;;;8.10;;
64641;SDS011;59936;51.490;5.436;2023-06-05T07:17:13;8.40;;;7.55;;
64641;SDS011;59936;51.490;5.436;2023-06-05T07:19:42;8.90;;;7.60;;
64641;SDS011;59936;51.490;5.436;2023-06-05T07:22:10;11.70;;;7.50;;
64641;SDS011;59936;51.490;5.436;2023-06-05T07:24:39;9.80;;;8.20;;
64641;SDS011;59936;51.490;5.436;2023-06-05T07:27:12;12.00;;;8.10;;
64641;SDS011;59936;51.490;5.436;2023-06-05T07:29:41;10.10;;;7.65;;
64641;SDS011;59936;51.490;5.436;2023-06-05T07:32:09;9.80;;;7.60;;
64641;SDS011;59936;51.490;5.436;2023-06-05T07:34:38;9.55;;;7.80;;
64641;SDS011;59936;51.490;5.436;2023-06-05T07:37:07;11.50;;;7.90;;
64641;SDS011;59936;51.490;5.436;2023-06-05T07:39:35;7.80;;;7.00;;
64641;SDS011;59936;51.490;5.436;2023-06-05T07:42:04;8.10;;;7.20;;
64641;SDS011;59936;51.490;5.436;2023-06-05T07:44:33;10.40;;;7.60;;
64641;SDS011;59936;51.490;5.436;2023-06-05T07:47:04;8.40;;;7.50;;
64641;SDS011;59936;51.490;5.436;2023-06-05T07:49:33;8.10;;;7.30;;
64641;SDS011;59936;51.490;5.436;2023-06-05T07:52:02;9.40;;;7.80;;
64641;SDS011;59936;51.490;5.436;2023-06-05T07:54:30;9.20;;;7.40;;
64641;SDS011;59936;51.490;5.436;2023-06-05T07:56:59;10.00;;;7.80;;
64641;SDS011;59936;51.490;5.436;2023-06-05T07:59:28;10.80;;;6.80;;
64641;SDS011;59936;51.490;5.436;2023-06-05T08:01:56;10.20;;;6.90;;
64641;SDS011;59936;51.490;5.436;2023-06-05T08:04:25;11.40;;;6.20;;
64641;SDS011;59936;51.490;5.436;2023-06-05T08:06:53;9.80;;;6.40;;
64641;SDS011;59936;51.490;5.436;2023-06-05T08:09:22;8.00;;;7.20;;
64641;SDS011;59936;51.490;5.436;2023-06-05T08:11:50;10.80;;;6.50;;
64641;SDS011;59936;51.490;5.436;2023-06-05T08:14:19;9.70;;;6.80;;
64641;SDS011;59936;51.490;5.436;2023-06-05T08:16:48;9.50;;;7.30;;
64641;SDS011;59936;51.490;5.436;2023-06-05T08:19:16;10.30;;;6.90;;
64641;SDS011;59936;51.490;5.436;2023-06-05T08:21:45;11.10;;;7.10;;
64641;SDS011;59936;51.490;5.436;2023-06-05T08:24:13;8.20;;;6.00;;
64641;SDS011;59936;51.490;5.436;2023-06-05T08:26:42;9.60;;;6.30;;
64641;SDS011;59936;51.490;5.436;2023-06-05T08:29:10;10.20;;;7.30;;
64641;SDS011;59936;51.490;5.436;2023-06-05T08:31:44;7.60;;;5.60;;
64641;SDS011;59936;51.490;5.436;2023-06-05T08:34:13;13.10;;;7.80;;
64641;SDS011;59936;51.490;5.436;2023-06-05T08:36:42;10.40;;;6.40;;
64641;SDS011;59936;51.490;5.436;2023-06-05T08:39:10;10.70;;;6.50;;
64641;SDS011;59936;51.490;5.436;2023-06-05T08:41:39;8.90;;;7.10;;
64641;SDS011;59936;51.490;5.436;2023-06-05T08:44:13;8.00;;;7.10;;
64641;SDS011;59936;51.490;5.436;2023-06-05T08:46:42;11.10;;;7.10;;
64641;SDS011;59936;51.490;5.436;2023-06-05T08:49:11;8.20;;;7.00;;
64641;SDS011;59936;51.490;5.436;2023-06-05T08:51:45;7.60;;;5.90;;
64641;SDS011;59936;51.490;5.436;2023-06-05T08:54:17;6.80;;;6.10;;
64641;SDS011;59936;51.490;5.436;2023-06-05T08:56:49;7.40;;;6.70;;
64641;SDS011;59936;51.490;5.436;2023-06-05T08:59:20;9.30;;;5.90;;
64641;SDS011;59936;51.490;5.436;2023-06-05T09:01:49;13.90;;;7.10;;
64641;SDS011;59936;51.490;5.436;2023-06-05T09:04:18;10.60;;;6.60;;
64641;SDS011;59936;51.490;5.436;2023-06-05T09:06:47;7.80;;;6.10;;
64641;SDS011;59936;51.490;5.436;2023-06-05T09:09:15;6.70;;;6.00;;
64641;SDS011;59936;51.490;5.436;2023-06-05T09:11:44;8.30;;;6.50;;
64641;SDS011;59936;51.490;5.436;2023-06-05T09:14:13;8.50;;;7.40;;
64641;SDS011;59936;51.490;5.436;2023-06-05T09:16:49;10.10;;;7.00;;
64641;SDS011;59936;51.490;5.436;2023-06-05T09:19:19;8.60;;;6.70;;
64641;SDS011;59936;51.490;5.436;2023-06-05T09:21:51;8.30;;;6.60;;
64641;SDS011;59936;51.490;5.436;2023-06-05T09:24:22;11.55;;;7.50;;
64641;SDS011;59936;51.490;5.436;2023-06-05T09:31:57;9.60;;;7.10;;
64641;SDS011;59936;51.490;5.436;2023-06-05T09:37:09;10.40;;;6.90;;
64641;SDS011;59936;51.490;5.436;2023-06-05T09:39:39;12.80;;;7.60;;
64641;SDS011;59936;51.490;5.436;2023-06-05T09:42:10;6.90;;;6.20;;
64641;SDS011;59936;51.490;5.436;2023-06-05T09:44:38;9.00;;;7.50;;
64641;SDS011;59936;51.490;5.436;2023-06-05T09:47:10;9.00;;;5.80;;
64641;SDS011;59936;51.490;5.436;2023-06-05T09:52:10;7.30;;;6.60;;
64641;SDS011;59936;51.490;5.436;2023-06-05T09:54:41;8.40;;;6.80;;
64641;SDS011;59936;51.490;5.436;2023-06-05T09:57:13;8.30;;;6.70;;
64641;SDS011;59936;51.490;5.436;2023-06-05T09:59:50;9.00;;;6.60;;
64641;SDS011;59936;51.490;5.436;2023-06-05T10:02:40;8.15;;;6.75;;
64641;SDS011;59936;51.490;5.436;2023-06-05T10:05:09;8.00;;;6.80;;
64641;SDS011;59936;51.490;5.436;2023-06-05T10:07:40;9.10;;;6.70;;
64641;SDS011;59936;51.490;5.436;2023-06-05T10:10:09;10.80;;;6.40;;
64641;SDS011;59936;51.490;5.436;2023-06-05T10:12:45;7.80;;;6.38;;
64641;SDS011;59936;51.490;5.436;2023-06-05T10:15:14;8.10;;;6.60;;
64641;SDS011;59936;51.490;5.436;2023-06-05T10:17:44;9.50;;;6.70;;
64641;SDS011;59936;51.490;5.436;2023-06-05T10:20:16;7.50;;;6.60;;
64641;SDS011;59936;51.490;5.436;2023-06-05T10:22:45;8.60;;;6.40;;
64641;SDS011;59936;51.490;5.436;2023-06-05T10:25:15;6.70;;;5.30;;
64641;SDS011;59936;51.490;5.436;2023-06-05T10:27:55;11.20;;;5.50;;
64641;SDS011;59936;51.490;5.436;2023-06-05T10:39:39;7.70;;;5.80;;
64641;SDS011;59936;51.490;5.436;2023-06-05T10:42:08;9.40;;;5.60;;
64641;SDS011;59936;51.490;5.436;2023-06-05T10:44:43;8.10;;;6.00;;
64641;SDS011;59936;51.490;5.436;2023-06-05T10:52:45;8.50;;;6.00;;
64641;SDS011;59936;51.490;5.436;2023-06-05T10:55:16;6.70;;;5.70;;
64641;SDS011;59936;51.490;5.436;2023-06-05T10:58:04;7.40;;;6.10;;
64641;SDS011;59936;51.490;5.436;2023-06-05T11:01:15;6.70;;;5.70;;
64641;SDS011;59936;51.490;5.436;2023-06-05T11:03:58;5.10;;;4.10;;
64641;SDS011;59936;51.490;5.436;2023-06-05T11:06:27;7.90;;;5.20;;
64641;SDS011;59936;51.490;5.436;2023-06-05T11:09:09;10.70;;;5.40;;
64641;SDS011;59936;51.490;5.436;2023-06-05T11:12:00;8.70;;;5.20;;
64641;SDS011;59936;51.490;5.436;2023-06-05T11:17:26;7.20;;;5.20;;
64641;SDS011;59936;51.490;5.436;2023-06-05T11:20:03;6.60;;;5.20;;
64641;SDS011;59936;51.490;5.436;2023-06-05T11:25:25;7.00;;;4.00;;
64641;SDS011;59936;51.490;5.436;2023-06-05T11:28:00;10.50;;;4.45;;
64641;SDS011;59936;51.490;5.436;2023-06-05T11:30:31;6.20;;;4.90;;
64641;SDS011;59936;51.490;5.436;2023-06-05T11:33:06;5.50;;;4.40;;
64641;SDS011;59936;51.490;5.436;2023-06-05T11:35:36;4.55;;;3.70;;
64641;SDS011;59936;51.490;5.436;2023-06-05T11:38:08;4.80;;;3.50;;
64641;SDS011;59936;51.490;5.436;2023-06-05T11:40:40;6.40;;;4.40;;
64641;SDS011;59936;51.490;5.436;2023-06-05T11:43:12;5.20;;;4.30;;
64641;SDS011;59936;51.490;5.436;2023-06-05T11:45:43;7.70;;;3.90;;
64641;SDS011;59936;51.490;5.436;2023-06-05T11:48:29;7.90;;;4.10;;
64641;SDS011;59936;51.490;5.436;2023-06-05T11:51:03;5.10;;;3.90;;
64641;SDS011;59936;51.490;5.436;2023-06-05T11:53:33;5.10;;;3.80;;
64641;SDS011;59936;51.490;5.436;2023-06-05T11:56:02;6.00;;;4.20;;
64641;SDS011;59936;51.490;5.436;2023-06-05T11:58:41;6.10;;;4.00;;
64641;SDS011;59936;51.490;5.436;2023-06-05T12:01:14;6.60;;;4.40;;
64641;SDS011;59936;51.490;5.436;2023-06-05T12:03:45;10.30;;;3.80;;
64641;SDS011;59936;51.490;5.436;2023-06-05T12:06:15;5.65;;;3.60;;
64641;SDS011;59936;51.490;5.436;2023-06-05T12:08:44;4.55;;;3.90;;
64641;SDS011;59936;51.490;5.436;2023-06-05T12:11:20;8.40;;;3.60;;
64641;SDS011;59936;51.490;5.436;2023-06-05T12:13:55;6.10;;;3.70;;
64641;SDS011;59936;51.490;5.436;2023-06-05T12:16:32;5.30;;;3.90;;
64641;SDS011;59936;51.490;5.436;2023-06-05T12:19:18;12.10;;;3.60;;
64641;SDS011;59936;51.490;5.436;2023-06-05T12:21:48;6.70;;;4.00;;
64641;SDS011;59936;51.490;5.436;2023-06-05T12:24:26;8.00;;;4.00;;
64641;SDS011;59936;51.490;5.436;2023-06-05T12:26:55;7.90;;;3.70;;
64641;SDS011;59936;51.490;5.436;2023-06-05T12:29:31;9.70;;;3.30;;
64641;SDS011;59936;51.490;5.436;2023-06-05T12:32:02;5.60;;;3.20;;
64641;SDS011;59936;51.490;5.436;2023-06-05T12:34:48;4.20;;;3.20;;
64641;SDS011;59936;51.490;5.436;2023-06-05T12:37:31;5.20;;;4.00;;
64641;SDS011;59936;51.490;5.436;2023-06-05T12:40:01;5.20;;;3.40;;
64641;SDS011;59936;51.490;5.436;2023-06-05T12:42:33;5.70;;;3.30;;
64641;SDS011;59936;51.490;5.436;2023-06-05T12:45:03;6.40;;;3.20;;
64641;SDS011;59936;51.490;5.436;2023-06-05T12:47:33;4.60;;;3.20;;
64641;SDS011;59936;51.490;5.436;2023-06-05T12:50:03;4.80;;;3.10;;
64641;SDS011;59936;51.490;5.436;2023-06-05T12:52:34;7.90;;;3.10;;
64641;SDS011;59936;51.490;5.436;2023-06-05T12:55:08;3.60;;;3.00;;
64641;SDS011;59936;51.490;5.436;2023-06-05T12:57:37;6.80;;;3.20;;
64641;SDS011;59936;51.490;5.436;2023-06-05T13:00:06;2.70;;;2.40;;
64641;SDS011;59936;51.490;5.436;2023-06-05T13:02:36;3.70;;;2.90;;
64641;SDS011;59936;51.490;5.436;2023-06-05T13:05:05;6.30;;;3.20;;
64641;SDS011;59936;51.490;5.436;2023-06-05T13:07:34;5.10;;;3.00;;
64641;SDS011;59936;51.490;5.436;2023-06-05T13:10:03;4.70;;;3.00;;
64641;SDS011;59936;51.490;5.436;2023-06-05T13:12:33;2.90;;;2.70;;
64641;SDS011;59936;51.490;5.436;2023-06-05T13:15:03;3.60;;;2.90;;
64641;SDS011;59936;51.490;5.436;2023-06-05T13:17:33;3.30;;;2.70;;
64641;SDS011;59936;51.490;5.436;2023-06-05T13:20:01;6.20;;;2.90;;
64641;SDS011;59936;51.490;5.436;2023-06-05T13:22:30;3.60;;;2.90;;
64641;SDS011;59936;51.490;5.436;2023-06-05T13:24:59;4.00;;;3.00;;
64641;SDS011;59936;51.490;5.436;2023-06-05T13:27:27;4.20;;;3.40;;
64641;SDS011;59936;51.490;5.436;2023-06-05T13:30:01;4.40;;;3.40;;
64641;SDS011;59936;51.490;5.436;2023-06-05T13:32:30;6.30;;;3.50;;
64641;SDS011;59936;51.490;5.436;2023-06-05T13:34:58;4.50;;;3.30;;
64641;SDS011;59936;51.490;5.436;2023-06-05T13:37:27;5.40;;;2.80;;
64641;SDS011;59936;51.490;5.436;2023-06-05T13:39:55;3.30;;;2.60;;
64641;SDS011;59936;51.490;5.436;2023-06-05T13:42:33;3.70;;;2.50;;
64641;SDS011;59936;51.490;5.436;2023-06-05T13:45:05;4.40;;;3.40;;
64641;SDS011;59936;51.490;5.436;2023-06-05T13:47:34;4.30;;;2.60;;
64641;SDS011;59936;51.490;5.436;2023-06-05T13:50:03;6.60;;;3.00;;
64641;SDS011;59936;51.490;5.436;2023-06-05T13:52:32;8.20;;;3.50;;
64641;SDS011;59936;51.490;5.436;2023-06-05T13:55:01;7.70;;;3.30;;
64641;SDS011;59936;51.490;5.436;2023-06-05T13:57:29;7.20;;;2.80;;
64641;SDS011;59936;51.490;5.436;2023-06-05T13:59:58;3.70;;;2.90;;
64641;SDS011;59936;51.490;5.436;2023-06-05T14:02:26;2.80;;;2.60;;
64641;SDS011;59936;51.490;5.436;2023-06-05T14:04:55;3.20;;;2.70;;
64641;SDS011;59936;51.490;5.436;2023-06-05T14:07:24;3.80;;;2.60;;
64641;SDS011;59936;51.490;5.436;2023-06-05T14:09:52;7.00;;;3.00;;
64641;SDS011;59936;51.490;5.436;2023-06-05T14:12:21;7.70;;;3.00;;
64641;SDS011;59936;51.490;5.436;2023-06-05T14:14:49;4.50;;;3.30;;
64641;SDS011;59936;51.490;5.436;2023-06-05T14:17:18;4.55;;;2.90;;
64641;SDS011;59936;51.490;5.436;2023-06-05T14:19:46;3.90;;;2.70;;
64641;SDS011;59936;51.490;5.436;2023-06-05T14:22:15;5.40;;;2.90;;
64641;SDS011;59936;51.490;5.436;2023-06-05T14:24:44;6.50;;;2.70;;
64641;SDS011;59936;51.490;5.436;2023-06-05T14:27:12;7.00;;;2.90;;
64641;SDS011;59936;51.490;5.436;2023-06-05T14:29:41;6.50;;;3.10;;
64641;SDS011;59936;51.490;5.436;2023-06-05T14:32:09;4.30;;;2.90;;
64641;SDS011;59936;51.490;5.436;2023-06-05T14:34:38;2.70;;;2.40;;
64641;SDS011;59936;51.490;5.436;2023-06-05T14:37:07;4.50;;;3.00;;
64641;SDS011;59936;51.490;5.436;2023-06-05T14:39:39;4.00;;;2.80;;
64641;SDS011;59936;51.490;5.436;2023-06-05T14:42:07;5.40;;;3.20;;
64641;SDS011;59936;51.490;5.436;2023-06-05T14:44:36;3.20;;;2.60;;
64641;SDS011;59936;51.490;5.436;2023-06-05T14:47:05;4.80;;;2.80;;
64641;SDS011;59936;51.490;5.436;2023-06-05T14:49:34;3.90;;;3.30;;
64641;SDS011;59936;51.490;5.436;2023-06-05T14:52:02;4.85;;;3.05;;
64641;SDS011;59936;51.490;5.436;2023-06-05T14:54:31;5.90;;;3.10;;
64641;SDS011;59936;51.490;5.436;2023-06-05T14:57:00;4.20;;;2.75;;
64641;SDS011;59936;51.490;5.436;2023-06-05T14:59:28;3.30;;;2.80;;
64641;SDS011;59936;51.490;5.436;2023-06-05T15:02:01;3.70;;;3.10;;
64641;SDS011;59936;51.490;5.436;2023-06-05T15:04:31;4.35;;;3.95;;
64641;SDS011;59936;51.490;5.436;2023-06-05T15:06:59;4.00;;;3.60;;
64641;SDS011;59936;51.490;5.436;2023-06-05T15:09:28;3.60;;;2.90;;
64641;SDS011;59936;51.490;5.436;2023-06-05T15:11:56;5.80;;;3.10;;
64641;SDS011;59936;51.490;5.436;2023-06-05T15:14:25;3.30;;;2.80;;
64641;SDS011;59936;51.490;5.436;2023-06-05T15:16:54;3.40;;;3.10;;
64641;SDS011;59936;51.490;5.436;2023-06-05T15:19:22;3.50;;;3.20;;
64641;SDS011;59936;51.490;5.436;2023-06-05T15:21:51;3.90;;;2.60;;
64641;SDS011;59936;51.490;5.436;2023-06-05T15:24:19;5.80;;;3.20;;
64641;SDS011;59936;51.490;5.436;2023-06-05T15:26:52;6.00;;;2.90;;
64641;SDS011;59936;51.490;5.436;2023-06-05T15:29:21;3.30;;;2.90;;
64641;SDS011;59936;51.490;5.436;2023-06-05T15:31:50;3.40;;;3.10;;
64641;SDS011;59936;51.490;5.436;2023-06-05T15:34:18;6.90;;;2.90;;
64641;SDS011;59936;51.490;5.436;2023-06-05T15:36:47;5.75;;;2.90;;
64641;SDS011;59936;51.490;5.436;2023-06-05T15:39:15;3.80;;;3.10;;